Hauptseite
METAR-TAF:

METAR-TAF

Flughäfen :

Fliegerhorst Diepholz

Diepholz, Deutschland

Breite: 52-35N, Länge: 008-21E, Höhe: 39 m

Beobachtung

Neuester Wetterbericht von vor 16 Stunden und 38 Minuten, um 09:20 UTC
Wind 6 kt aus Ost
Temperatur 23°C
Luftfeuchtigkeit 44%
Luftdruck 1014 hPa
Sichtweite 10 km oder mehr
Durchbrochene Bewölkung in der Höhe von 30000 ft

METAR: ETND 200920Z 08006KT 9999 BKN300 23/10 Q1014 BLU+

Zeit: 03:58 (01:58 UTC)

Prognose

Neuester Wetterbericht von vor 21 Stunden und 38 Minuten, um 04:20 UTC
Gültige Prognose vom 20 um 05 UTC bis 20 um 14 UTC
Wind 6 kt aus Ost
Sichtweite 10 km oder mehr
Durchbrochene Bewölkung in der Höhe von 7000 ft

TAF: ETND 200420Z 2005/2014 08006KT 9999 NSW BKN070 CANCEL BY ETGL

Wetterbeobachtungen und Prognosen von mehr als 4000 Flughäfen (METAR und TAF Bericht).

Die verfügbaren Stationen werden durch gelbe und rote Markierungen auf der Karte dargestellt.

Führen Sie die Maus auf sie, um den Namen der Station zu sehen.

Darauf klicken, um die Beobachtung von Wetterbeobachtungen und Prognosen zu sehen.

Um die Karte zu ändern : klicken Sie auf den grünen Tasten mit einem schwarzen Kreuz Zum Vergrößern, auf den grünen Button mit einem Gedankenstrich zu verkleinern, oder auf die grünen Pfeile für benachbarte Karten.


METAR-TAF: